Widnoon, Pennsylvania
Current Conditions -  °F | °C
As of 3:35 PM on Saturday 25 Oct 2014 (Local Time) from KBTP Reporting Station
Overcast Overcast  
Wind Chill: 64°   Ceiling: 3900
Heat Index: 64°   Visibility: 10mi
Dew Point: 48°   Wind: 15mph
Humidity: 56%   Direction: 230°SW
Pressure: 29.79"   Gusts: 24mph
Location:  40.96°N, 79.47°W
Report Text: KBTP 251935Z AUTO 23013G21KT 10SM BKN039 OVC046 18/09 A2979 RMK AO1
Loading
Personal Weather Stations






























Interactive Weather Map
Tropical Storm Tracking
New forecast layout! Learn more

10-Day Weather Forecast

Advertisements
Track Severe Weather on mobile